ATMO2: Muddy Boggy Creek at Atoka

Data processed at Tue May 21 2019 23:50


All information presented herein is the property of the government of the United States of America and may be revised or deleted at any time without prior notice.
Dissemination of this information without the expressed written consent of the Public Affairs Office, Tulsa District U.S. Army Corps of Engineers is strictly prohibited.
These data are gathered electronically and, as presented, have not undergone any form of quality control. These data are not guaranteed to be valid or correct.
Go to home page.
Go to station list.
Go to home page.

Downstream station:


Previous Day
Next Day
Current Day
    
SHEF ID:       ATMO2     Muddy Boggy Creek at Atoka, OK
STATION TYPE:  

               PRECIP     STAGE  RIV-FLOW   VOLTAGE
                   in        ft       cfs      volt
              Ccp-Rev   Ccp-Rev   Ccp-Rev   Ccp-Rev
(US/Central)
05/21 00:00      0.00     19.02       666     12.80
05/21 01:00      0.00     18.87       628     12.80
05/21 02:00      0.00     18.74       597     12.80
05/21 03:00      0.00     18.62       570     12.70
05/21 04:00      0.00     18.53       550     12.80
05/21 05:00      0.00     18.40       522     12.80
05/21 06:00      0.00     18.32       506     12.80
05/21 07:00      0.00     18.20       483     12.70
05/21 08:00      0.62     18.35       512     13.20
05/21 09:00      0.00     18.33       508     13.50
05/21 10:00      0.00     18.51       546     13.20
05/21 11:00      0.00     18.77       604     13.20
05/21 12:00      0.02     18.81       614     13.50
05/21 13:00      0.01     18.85       623     14.20
05/21 14:00      0.00     18.90       636     14.00
05/21 15:00      0.00     18.99       658     14.00
05/21 16:00      0.00     19.21       716     13.90
05/21 17:00      0.00     19.58       823     13.90
05/21 18:00      0.00     20.08       990     13.80
05/21 19:00      0.00     20.60      1193     13.00
05/21 20:00      0.00     21.10      1422     12.80
05/21 21:00      0.00     21.61      1694     12.80
05/21 22:00      0.00     22.04      1956     12.80
05/21 23:00      ----      ----      ----      ----